createdAt,value
2018-05-18T00:01:48.414Z,79.60
2018-05-18T00:04:19.015Z,79.70
2018-05-18T00:06:49.378Z,79.70
2018-05-18T00:09:19.299Z,79.60
2018-05-18T00:11:49.611Z,79.60
2018-05-18T00:14:20.735Z,79.60
2018-05-18T00:16:51.079Z,79.60
2018-05-18T00:19:21.389Z,79.60
2018-05-18T00:21:55.562Z,79.60
2018-05-18T00:24:25.634Z,79.60
2018-05-18T00:26:55.161Z,79.90
2018-05-18T00:29:25.596Z,80.00
2018-05-18T00:31:59.836Z,79.90
2018-05-18T00:34:30.387Z,79.70
2018-05-18T00:37:01.085Z,79.90
2018-05-18T00:39:31.403Z,79.80
2018-05-18T00:42:01.446Z,79.80
2018-05-18T00:44:31.706Z,79.70
2018-05-18T00:47:02.077Z,79.80
2018-05-18T00:49:32.358Z,79.70
2018-05-18T00:52:03.498Z,79.80
2018-05-18T00:54:35.143Z,79.90
2018-05-18T00:57:06.031Z,79.90
2018-05-18T00:59:37.102Z,79.70
2018-05-18T01:02:07.432Z,79.70
2018-05-18T01:04:38.568Z,79.70
2018-05-18T01:07:10.710Z,79.70
2018-05-18T01:09:40.928Z,79.90
2018-05-18T01:12:11.464Z,79.90
2018-05-18T01:14:41.259Z,80.00
2018-05-18T01:17:11.628Z,80.10
2018-05-18T01:19:41.881Z,80.30
2018-05-18T01:22:12.691Z,80.10
2018-05-18T01:24:42.929Z,80.10
2018-05-18T01:27:13.809Z,80.10
2018-05-18T01:29:44.385Z,80.30
2018-05-18T01:32:14.853Z,80.30
2018-05-18T01:34:45.132Z,80.10
2018-05-18T01:37:15.899Z,79.90
2018-05-18T01:39:46.014Z,79.90
2018-05-18T01:42:19.749Z,79.80
2018-05-18T01:44:49.460Z,79.80
2018-05-18T01:47:19.168Z,79.80
2018-05-18T01:49:50.007Z,80.00
2018-05-18T01:52:20.335Z,80.00
2018-05-18T01:54:51.279Z,80.00
2018-05-18T01:57:21.499Z,79.90
2018-05-18T01:59:52.093Z,80.10
2018-05-18T02:02:22.208Z,80.30
2018-05-18T02:04:52.351Z,80.30
2018-05-18T02:07:22.855Z,80.40
2018-05-18T02:09:53.180Z,80.60
2018-05-18T02:12:23.410Z,80.30
2018-05-18T02:14:54.080Z,80.30
2018-05-18T02:17:24.848Z,80.40
2018-05-18T02:19:55.698Z,80.40
2018-05-18T02:22:25.935Z,80.40
2018-05-18T02:24:59.559Z,80.50
2018-05-18T02:27:30.310Z,80.30
2018-05-18T02:30:05.491Z,79.90
2018-05-18T02:32:36.019Z,79.80
2018-05-18T02:35:07.981Z,80.10
2018-05-18T02:37:38.116Z,79.60
2018-05-18T02:40:11.395Z,79.60
2018-05-18T02:42:42.104Z,79.50
2018-05-18T02:45:12.860Z,79.50
2018-05-18T02:47:46.629Z,79.30
2018-05-18T02:50:16.668Z,79.40
2018-05-18T02:52:48.292Z,79.40
2018-05-18T02:55:18.515Z,79.40
2018-05-18T02:57:48.749Z,79.00
2018-05-18T03:00:20.773Z,79.20
2018-05-18T03:02:55.479Z,79.40
2018-05-18T03:05:25.907Z,79.30
2018-05-18T03:07:56.222Z,79.50
2018-05-18T03:10:26.134Z,79.70
2018-05-18T03:12:56.539Z,79.60
2018-05-18T03:15:26.861Z,79.40
2018-05-18T03:17:57.675Z,79.40
2018-05-18T03:20:28.625Z,78.90
2018-05-18T03:22:59.325Z,78.70
2018-05-18T03:25:30.558Z,78.90
2018-05-18T03:28:02.235Z,78.90
2018-05-18T03:30:32.720Z,78.50
2018-05-18T03:33:05.212Z,78.50
2018-05-18T03:35:35.605Z,78.50
2018-05-18T03:38:06.070Z,78.30
2018-05-18T03:40:36.659Z,78.20
2018-05-18T03:43:07.448Z,78.30
2018-05-18T03:45:38.037Z,78.40
2018-05-18T03:48:09.546Z,78.30
2018-05-18T03:50:40.920Z,78.40
2018-05-18T03:53:11.595Z,78.40
2018-05-18T03:55:43.060Z,78.40
2018-05-18T03:58:13.165Z,78.40
2018-05-18T04:03:50.239Z,78.50
2018-05-18T04:06:35.390Z,78.50
2018-05-18T04:09:05.741Z,78.70
2018-05-18T04:11:36.042Z,78.90
2018-05-18T04:14:09.040Z,78.90
2018-05-18T04:16:38.750Z,79.00
2018-05-18T04:19:09.792Z,79.40
2018-05-18T04:21:41.372Z,79.20
2018-05-18T04:24:13.844Z,78.90
2018-05-18T04:26:44.881Z,78.90
2018-05-18T04:29:16.336Z,78.50
2018-05-18T04:31:47.891Z,78.20
2018-05-18T04:34:18.242Z,78.40
2018-05-18T04:36:48.844Z,78.50
2018-05-18T04:39:19.886Z,78.50
2018-05-18T04:41:49.864Z,78.50
2018-05-18T04:44:21.165Z,78.70
2018-05-18T04:46:51.998Z,78.70
2018-05-18T04:49:22.570Z,78.30
2018-05-18T04:51:55.017Z,78.30
2018-05-18T04:54:25.707Z,77.90
2018-05-18T04:56:57.526Z,78.20
2018-05-18T04:59:28.583Z,78.10
2018-05-18T05:02:00.384Z,77.90
2018-05-18T05:04:36.204Z,77.80
2018-05-18T05:07:10.011Z,77.50
2018-05-18T05:09:46.273Z,77.80
2018-05-18T05:12:17.610Z,77.80
2018-05-18T05:14:48.592Z,77.60
2018-05-18T05:17:19.704Z,77.60
2018-05-18T05:19:50.749Z,77.20
2018-05-18T05:22:21.240Z,76.70
2018-05-18T05:24:51.713Z,76.40
2018-05-18T05:27:37.811Z,76.10
2018-05-18T05:30:08.175Z,76.20
2018-05-18T05:32:41.247Z,75.90
2018-05-18T05:35:12.154Z,75.60
2018-05-18T05:37:42.282Z,75.70
2018-05-18T05:40:15.621Z,75.60
2018-05-18T05:42:46.041Z,76.10
2018-05-18T05:45:16.491Z,76.10
2018-05-18T05:47:46.961Z,76.30
2018-05-18T05:50:18.332Z,75.70
2018-05-18T05:52:48.682Z,75.70
2018-05-18T05:55:25.212Z,75.50
2018-05-18T05:57:55.809Z,75.10
2018-05-18T06:00:29.583Z,75.30
2018-05-18T06:03:03.537Z,75.50
2018-05-18T06:05:35.050Z,75.40
2018-05-18T06:08:05.110Z,75.40
2018-05-18T06:10:36.481Z,75.20
2018-05-18T06:13:07.488Z,75.00
2018-05-18T06:15:39.881Z,75.00
2018-05-18T06:18:14.916Z,75.20
2018-05-18T06:20:45.362Z,75.00
2018-05-18T06:23:16.410Z,74.80
2018-05-18T06:25:46.681Z,74.10
2018-05-18T06:28:16.001Z,73.50
2018-05-18T06:30:43.762Z,73.10
2018-05-18T06:33:11.657Z,73.00
2018-05-18T06:35:39.371Z,73.30
2018-05-18T06:38:12.953Z,73.00
2018-05-18T06:40:40.786Z,73.40
2018-05-18T06:43:09.054Z,74.00
2018-05-18T06:45:36.944Z,74.00
2018-05-18T06:48:05.730Z,74.60
2018-05-18T06:50:33.680Z,74.80
2018-05-18T06:53:01.729Z,75.30
2018-05-18T06:55:35.024Z,75.30
2018-05-18T06:58:02.749Z,75.20
2018-05-18T07:00:35.820Z,75.30
2018-05-18T07:03:03.555Z,75.20
2018-05-18T07:05:31.335Z,75.20
2018-05-18T07:07:59.081Z,75.30
2018-05-18T07:10:27.444Z,75.20
2018-05-18T07:12:55.465Z,73.40
2018-05-18T07:15:26.033Z,72.70
2018-05-18T07:17:54.014Z,72.90
2018-05-18T07:20:25.482Z,73.50
2018-05-18T07:22:53.208Z,73.40
2018-05-18T07:25:21.778Z,72.90
2018-05-18T07:27:49.425Z,72.70
2018-05-18T07:30:17.267Z,72.80
2018-05-18T07:32:46.094Z,72.20
2018-05-18T07:35:13.684Z,72.60
2018-05-18T07:37:41.780Z,72.70
2018-05-18T07:40:11.566Z,72.80
2018-05-18T07:42:39.158Z,72.70
2018-05-18T07:45:09.966Z,72.60
2018-05-18T07:47:37.586Z,72.10
2018-05-18T07:50:06.655Z,71.30
2018-05-18T07:52:34.211Z,71.30
2018-05-18T07:55:01.970Z,70.70
2018-05-18T07:57:29.596Z,70.50
2018-05-18T07:59:57.244Z,69.80
2018-05-18T08:02:24.926Z,69.70
2018-05-18T08:04:52.502Z,69.40
2018-05-18T08:07:24.676Z,69.40
2018-05-18T08:09:52.383Z,69.30
2018-05-18T08:12:20.548Z,68.60
2018-05-18T08:14:48.329Z,68.70
2018-05-18T08:17:16.005Z,68.90
2018-05-18T08:19:43.783Z,69.60
2018-05-18T08:22:11.419Z,69.50
2018-05-18T08:24:41.662Z,70.30
2018-05-18T08:27:21.185Z,70.30
2018-05-18T08:29:48.904Z,70.10
2018-05-18T08:32:16.493Z,70.30
2018-05-18T08:34:44.130Z,69.80
2018-05-18T08:37:11.800Z,69.70
2018-05-18T08:39:39.575Z,69.40
2018-05-18T08:42:07.215Z,68.50
2018-05-18T08:44:34.982Z,69.30
2018-05-18T08:47:02.644Z,69.80
2018-05-18T08:49:30.263Z,70.10
2018-05-18T08:51:58.250Z,69.50
2018-05-18T08:54:25.810Z,69.50
2018-05-18T08:56:53.509Z,69.00
2018-05-18T08:59:22.396Z,68.90
2018-05-18T09:01:50.060Z,68.10
2018-05-18T09:04:17.667Z,67.90
2018-05-18T09:06:45.701Z,65.90
2018-05-18T09:09:13.363Z,65.90
2018-05-18T09:11:40.970Z,64.90
2018-05-18T09:14:09.162Z,63.10
2018-05-18T09:16:36.817Z,63.10
2018-05-18T09:19:04.522Z,61.90
2018-05-18T09:21:32.245Z,60.60
2018-05-18T09:23:59.919Z,59.50
2018-05-18T09:26:27.618Z,60.60
2018-05-18T09:28:55.226Z,60.80
2018-05-18T09:31:23.319Z,59.90
2018-05-18T09:33:51.022Z,59.90
2018-05-18T09:36:18.692Z,59.30
2018-05-18T09:38:46.783Z,59.60
2018-05-18T09:41:14.497Z,59.60
2018-05-18T09:43:42.281Z,59.50
2018-05-18T09:46:10.772Z,59.90
2018-05-18T09:48:38.405Z,59.20
2018-05-18T09:51:06.011Z,59.30
2018-05-18T09:53:33.723Z,60.00
2018-05-18T09:56:01.529Z,59.90
2018-05-18T09:58:42.736Z,59.30
2018-05-18T10:01:10.790Z,60.30
2018-05-18T10:03:38.455Z,60.30
2018-05-18T10:06:06.073Z,60.80
2018-05-18T10:08:33.701Z,60.70
2018-05-18T10:11:01.316Z,59.60
2018-05-18T10:13:29.043Z,58.80
2018-05-18T10:15:56.647Z,60.10
2018-05-18T10:18:24.814Z,60.30
2018-05-18T10:20:52.467Z,59.60
2018-05-18T10:23:20.145Z,60.00
2018-05-18T10:25:47.791Z,58.60
2018-05-18T10:28:15.392Z,58.60
2018-05-18T10:30:42.981Z,58.30
2018-05-18T10:33:10.988Z,58.40
2018-05-18T10:35:38.653Z,58.40
2018-05-18T10:38:06.280Z,57.20
2018-05-18T10:40:34.314Z,57.40
2018-05-18T10:43:02.095Z,57.40
2018-05-18T10:45:29.837Z,56.40
2018-05-18T10:47:57.559Z,55.70
2018-05-18T10:50:25.822Z,55.90
2018-05-18T10:52:54.058Z,55.90
2018-05-18T10:55:21.666Z,55.90
2018-05-18T10:57:49.628Z,56.00
2018-05-18T11:00:17.779Z,56.00
2018-05-18T11:02:45.395Z,57.50
2018-05-18T11:05:13.066Z,58.30
2018-05-18T11:07:40.607Z,58.70
2018-05-18T11:10:09.598Z,57.20
2018-05-18T11:12:37.180Z,58.20
2018-05-18T11:15:04.754Z,58.40
2018-05-18T11:17:32.297Z,60.00
2018-05-18T11:19:59.892Z,58.80
2018-05-18T11:22:27.451Z,57.90
2018-05-18T11:24:55.037Z,56.70
2018-05-18T11:27:23.056Z,55.10
2018-05-18T11:29:50.612Z,55.10
2018-05-18T11:32:18.176Z,53.90
2018-05-18T11:34:45.924Z,54.40
2018-05-18T11:37:14.020Z,52.80
2018-05-18T11:39:41.679Z,54.60
2018-05-18T11:42:09.215Z,55.80
2018-05-18T11:44:36.794Z,54.70
2018-05-18T11:47:04.483Z,54.40
2018-05-18T11:49:32.092Z,54.10
2018-05-18T11:51:59.652Z,54.30
2018-05-18T11:54:32.983Z,55.20
2018-05-18T11:57:00.545Z,53.60
2018-05-18T11:59:28.146Z,53.30
2018-05-18T12:01:56.857Z,52.60
2018-05-18T12:04:24.957Z,53.70
2018-05-18T12:06:52.539Z,53.60
2018-05-18T12:09:20.177Z,54.30
2018-05-18T12:11:48.918Z,55.20
2018-05-18T12:14:16.473Z,56.20
2018-05-18T12:16:46.211Z,57.20
2018-05-18T12:19:15.417Z,57.00
2018-05-18T12:21:44.871Z,55.80
2018-05-18T12:24:13.891Z,55.80
2018-05-18T12:26:41.973Z,55.10
2018-05-18T12:29:10.423Z,52.50
2018-05-18T12:31:38.073Z,52.50
2018-05-18T12:34:05.569Z,53.40
2018-05-18T12:36:34.131Z,53.90
2018-05-18T12:39:03.538Z,54.20
2018-05-18T12:41:31.185Z,54.60
2018-05-18T12:43:59.144Z,53.30
2018-05-18T12:46:27.776Z,53.40
2018-05-18T12:48:55.350Z,54.50
2018-05-18T12:51:23.422Z,52.90
2018-05-18T12:53:51.030Z,52.90
2018-05-18T12:56:18.693Z,53.20
2018-05-18T12:58:46.249Z,54.20
2018-05-18T13:01:17.819Z,54.50
2018-05-18T13:03:45.373Z,55.10
2018-05-18T13:06:12.963Z,55.90
2018-05-18T13:08:40.588Z,56.40
2018-05-18T13:11:08.153Z,54.60
2018-05-18T13:13:45.870Z,53.30
2018-05-18T13:16:13.516Z,51.90
2018-05-18T13:18:41.100Z,52.40
2018-05-18T13:21:08.726Z,52.20
2018-05-18T13:23:36.359Z,51.40
2018-05-18T13:26:07.564Z,51.20
2018-05-18T13:28:35.174Z,51.20
2018-05-18T13:31:03.171Z,51.80
2018-05-18T13:33:31.319Z,51.80
2018-05-18T13:35:59.309Z,52.10
2018-05-18T13:38:27.870Z,52.10
2018-05-18T13:40:55.439Z,51.70
2018-05-18T13:43:23.090Z,51.60
2018-05-18T13:45:52.182Z,51.70
2018-05-18T13:48:20.184Z,50.90
2018-05-18T13:50:47.932Z,50.90
2018-05-18T13:53:15.579Z,51.30
2018-05-18T13:55:47.694Z,51.90
2018-05-18T13:58:19.168Z,51.10
2018-05-18T14:00:46.804Z,50.20
2018-05-18T14:03:15.504Z,50.40
2018-05-18T14:05:43.081Z,50.80
2018-05-18T14:08:10.651Z,50.80
2018-05-18T14:10:38.861Z,50.30
2018-05-18T14:13:13.342Z,50.40
2018-05-18T14:15:41.412Z,50.40
2018-05-18T14:18:08.994Z,51.60
2018-05-18T14:20:36.569Z,52.10
2018-05-18T14:23:18.014Z,54.30
2018-05-18T14:25:45.595Z,54.30
2018-05-18T14:28:13.174Z,55.20
2018-05-18T14:30:40.737Z,54.70
2018-05-18T14:33:08.590Z,53.40
2018-05-18T14:35:44.291Z,52.50
2018-05-18T14:38:11.862Z,50.90
2018-05-18T14:40:39.384Z,49.90
2018-05-18T14:43:07.406Z,50.20
2018-05-18T14:45:47.902Z,49.90
2018-05-18T14:48:15.458Z,49.90
2018-05-18T14:50:56.477Z,49.50
2018-05-18T14:53:28.198Z,50.10
2018-05-18T14:55:56.352Z,51.70
2018-05-18T14:58:23.951Z,53.40
2018-05-18T15:00:51.928Z,54.40
2018-05-18T15:03:34.425Z,54.50
2018-05-18T15:06:02.421Z,54.50
2018-05-18T15:08:35.219Z,54.50
2018-05-18T15:11:07.236Z,53.70
2018-05-18T15:13:35.503Z,54.70
2018-05-18T15:16:09.790Z,55.30
2018-05-18T15:18:37.404Z,55.50
2018-05-18T15:21:05.426Z,56.10
2018-05-18T15:23:42.429Z,56.10
2018-05-18T15:26:10.111Z,56.00
2018-05-18T15:28:37.744Z,56.20
2018-05-18T15:31:09.242Z,56.20
2018-05-18T15:33:37.265Z,56.10
2018-05-18T15:36:04.868Z,56.10
2018-05-18T15:38:36.978Z,55.50
2018-05-18T15:41:08.293Z,55.50
2018-05-18T15:43:37.452Z,55.30
2018-05-18T15:46:05.132Z,55.20
2018-05-18T15:48:32.748Z,55.50
2018-05-18T15:51:11.071Z,56.10
2018-05-18T15:53:38.703Z,55.50
2018-05-18T15:56:21.486Z,55.70
2018-05-18T15:58:49.050Z,55.50
2018-05-18T16:01:16.844Z,56.00
2018-05-18T16:03:44.472Z,56.30
2018-05-18T16:06:36.666Z,56.60
2018-05-18T16:09:07.001Z,56.40
2018-05-18T16:11:56.416Z,56.70
2018-05-18T16:14:23.967Z,57.80
2018-05-18T16:16:51.711Z,57.10
2018-05-18T16:19:20.522Z,57.40
2018-05-18T16:21:48.100Z,58.20
2018-05-18T16:24:16.894Z,58.70
2018-05-18T16:27:05.641Z,59.20
2018-05-18T16:29:33.689Z,60.00
2018-05-18T16:32:01.273Z,60.30
2018-05-18T16:34:35.541Z,60.70
2018-05-18T16:37:03.138Z,60.80
2018-05-18T16:39:37.869Z,61.10
2018-05-18T16:42:08.240Z,61.30
2018-05-18T16:44:35.883Z,61.60
2018-05-18T16:47:03.843Z,61.90
2018-05-18T16:49:31.473Z,61.90
2018-05-18T16:54:33.210Z,62.10
2018-05-18T16:57:00.827Z,61.50
2018-05-18T16:59:28.474Z,61.60
2018-05-18T17:02:07.948Z,61.70
2018-05-18T17:04:35.661Z,61.20
2018-05-18T17:07:03.232Z,60.90
2018-05-18T17:09:40.807Z,60.00
2018-05-18T17:12:08.365Z,59.70
2018-05-18T17:14:36.008Z,59.30
2018-05-18T17:17:03.940Z,58.40
2018-05-18T17:19:41.233Z,58.40
2018-05-18T17:22:08.798Z,58.70
2018-05-18T17:24:36.369Z,58.70
2018-05-18T17:27:03.934Z,58.70
2018-05-18T17:29:31.660Z,58.50
2018-05-18T17:31:59.244Z,59.30
2018-05-18T17:34:42.471Z,59.60
2018-05-18T17:37:10.026Z,59.70
2018-05-18T17:39:37.576Z,60.40
2018-05-18T17:42:05.135Z,60.90
2018-05-18T17:44:32.677Z,60.60
2018-05-18T17:47:20.543Z,60.40
2018-05-18T17:49:48.105Z,60.40
2018-05-18T17:52:15.639Z,60.60
2018-05-18T17:54:43.286Z,61.60
2018-05-18T17:57:10.839Z,62.00
2018-05-18T17:59:38.582Z,62.90
2018-05-18T18:02:06.338Z,63.50
2018-05-18T18:04:34.051Z,63.40
2018-05-18T18:07:21.157Z,63.80
2018-05-18T18:09:48.956Z,64.90
2018-05-18T18:12:34.306Z,65.10
2018-05-18T18:15:01.909Z,65.30
2018-05-18T18:17:42.798Z,65.50
2018-05-18T18:20:10.403Z,65.90
2018-05-18T18:22:38.084Z,66.30
2018-05-18T18:25:05.676Z,66.40
2018-05-18T18:27:45.975Z,66.30
2018-05-18T18:30:13.549Z,66.50
2018-05-18T18:32:41.992Z,66.70
2018-05-18T18:35:09.624Z,67.20
2018-05-18T18:37:37.224Z,67.40
2018-05-18T18:40:05.281Z,67.90
2018-05-18T18:42:32.927Z,67.90
2018-05-18T18:45:00.677Z,68.10
2018-05-18T18:47:40.538Z,68.30
2018-05-18T18:50:08.224Z,68.70
2018-05-18T18:52:52.232Z,68.80
2018-05-18T18:55:19.875Z,68.80
2018-05-18T18:58:05.955Z,69.20
2018-05-18T19:00:33.455Z,69.50
2018-05-18T19:03:01.113Z,69.70
2018-05-18T19:05:28.732Z,69.90
2018-05-18T19:07:56.736Z,70.60
2018-05-18T19:10:24.233Z,70.60
2018-05-18T19:12:51.807Z,70.50
2018-05-18T19:15:20.058Z,71.00
2018-05-18T19:17:47.753Z,71.00
2018-05-18T19:20:15.810Z,71.00
2018-05-18T19:22:45.896Z,71.00
2018-05-18T19:25:13.489Z,71.20
2018-05-18T19:27:49.275Z,71.30
2018-05-18T19:30:17.278Z,71.90
2018-05-18T19:32:45.553Z,71.90
2018-05-18T19:35:13.196Z,72.00
2018-05-18T19:37:40.830Z,72.10
2018-05-18T19:40:08.360Z,72.20
2018-05-18T19:42:35.964Z,72.40
2018-05-18T19:45:03.998Z,73.00
2018-05-18T19:47:32.542Z,73.00
2018-05-18T19:50:00.168Z,73.20
2018-05-18T19:52:40.521Z,73.30
2018-05-18T19:55:08.089Z,73.30
2018-05-18T19:57:35.801Z,73.70
2018-05-18T20:00:03.627Z,74.30
2018-05-18T20:02:31.566Z,74.60
2018-05-18T20:05:13.424Z,74.60
2018-05-18T20:07:41.144Z,74.50
2018-05-18T20:10:08.855Z,74.50
2018-05-18T20:13:00.554Z,74.50
2018-05-18T20:15:28.527Z,75.10
2018-05-18T20:17:56.088Z,75.10
2018-05-18T20:20:24.123Z,75.60
2018-05-18T20:22:51.744Z,75.60
2018-05-18T20:25:19.291Z,75.50
2018-05-18T20:30:41.247Z,75.40
2018-05-18T20:33:22.008Z,75.10
2018-05-18T20:35:50.032Z,74.90
2018-05-18T20:38:34.623Z,74.90
2018-05-18T20:41:02.628Z,75.10
2018-05-18T20:43:34.587Z,75.20
2018-05-18T20:46:02.292Z,75.30
2018-05-18T20:48:29.937Z,75.50
2018-05-18T20:50:58.907Z,75.70
2018-05-18T20:53:28.464Z,76.00
2018-05-18T20:55:56.464Z,76.10
2018-05-18T20:58:24.909Z,76.10
2018-05-18T21:01:05.193Z,76.40
2018-05-18T21:03:33.142Z,76.40
2018-05-18T21:06:00.749Z,76.40
2018-05-18T21:08:32.288Z,76.60
2018-05-18T21:11:00.268Z,76.80
2018-05-18T21:13:43.175Z,76.80
2018-05-18T21:16:10.776Z,76.80
2018-05-18T21:19:03.200Z,77.10
2018-05-18T21:21:30.757Z,77.20
2018-05-18T21:23:58.334Z,77.30
2018-05-18T21:26:25.923Z,77.50
2018-05-18T21:28:53.568Z,77.70
2018-05-18T21:31:21.129Z,77.90
2018-05-18T21:33:54.406Z,77.90
2018-05-18T21:36:21.952Z,78.30
2018-05-18T21:38:50.970Z,78.90
2018-05-18T21:41:18.493Z,78.90
2018-05-18T21:43:46.494Z,79.40
2018-05-18T21:46:14.045Z,79.40
2018-05-18T21:48:41.653Z,79.50
2018-05-18T21:51:09.308Z,79.60
2018-05-18T21:53:36.890Z,79.70
2018-05-18T21:56:21.315Z,79.60
2018-05-18T21:58:49.547Z,79.50
2018-05-18T22:01:32.846Z,79.60
2018-05-18T22:04:00.418Z,79.60
2018-05-18T22:06:28.057Z,79.80
2018-05-18T22:09:10.403Z,79.80
2018-05-18T22:11:37.952Z,79.80
2018-05-18T22:14:05.532Z,80.00
2018-05-18T22:16:33.074Z,80.10
2018-05-18T22:19:00.712Z,80.60
2018-05-18T22:21:28.285Z,80.60
2018-05-18T22:23:55.824Z,80.80
2018-05-18T22:26:39.925Z,80.60
2018-05-18T22:29:07.867Z,80.80
2018-05-18T22:31:35.461Z,80.80
2018-05-18T22:34:03.102Z,81.00
2018-05-18T22:36:30.995Z,81.50
2018-05-18T22:38:58.944Z,81.70
2018-05-18T22:41:27.352Z,81.70
2018-05-18T22:44:09.657Z,81.90
2018-05-18T22:46:37.604Z,81.90
2018-05-18T22:49:05.163Z,81.90
2018-05-18T22:54:37.691Z,82.70
2018-05-18T22:57:05.257Z,83.30
2018-05-18T22:59:52.042Z,84.00
2018-05-18T23:02:23.435Z,84.50
2018-05-18T23:04:54.159Z,84.40
2018-05-18T23:07:27.209Z,84.60
2018-05-18T23:09:54.807Z,84.50
2018-05-18T23:12:39.068Z,85.20
2018-05-18T23:15:10.466Z,85.50
2018-05-18T23:17:41.495Z,85.90
2018-05-18T23:20:11.228Z,86.10
2018-05-18T23:22:43.054Z,86.30
2018-05-18T23:25:14.277Z,86.40
2018-05-18T23:27:43.581Z,86.30
2018-05-18T23:30:11.173Z,86.30
2018-05-18T23:32:50.378Z,86.60
2018-05-18T23:35:17.938Z,87.10
2018-05-18T23:37:45.484Z,86.80
2018-05-18T23:40:13.066Z,86.70
2018-05-18T23:42:40.603Z,87.40
2018-05-18T23:45:21.960Z,87.70
2018-05-18T23:47:49.530Z,87.80
2018-05-18T23:50:17.762Z,87.80
2018-05-18T23:52:45.301Z,88.30
2018-05-18T23:55:12.855Z,88.00
2018-05-18T23:57:56.101Z,88.30
